Bei Facebook empfehlenBei Twitter postenGoogle plusPinterest

Das Wetter im Erzgebirge am 25.10.2016

Wetter und Klima am 25.10.2016 Holzhau im Erzgebirge (630m ü.NN)
Letzte gemessene Temperatur und Uhrzeit der Messung23:45:00 Uhr7.40 °C
Temperatur (Maximum / Höchstwert) und Uhrzeit der Messung07:00:00 Uhr9.30 °C
Temperatur (Minimum / Tiefstwert) und Uhrzeit der Messung23:45:007.40 °C
Errechneter Absolutwert der Temperaturschwankungen zwischen Tmin und Tmax des Tages1.90 K
Errechnete Tagesmitteltemperatur8.28958 °C
Gesamt - Niederschlag des Tages (in flüssiger Form)5.18 Liter / m²
Luftdruck (Maximum / Höchstwert) und Zeitpunkt der Messung23:45:00 Uhr1020.30 hPa
Luftdruck (Minimum / Tiefstwert) und Zeitpunkt der Messung01:00:00 Uhr1010.80 hPa
Errechneter Absolutwert der Luftdruckschwankungen des Tages9.50 hPa
Höchste gemessene Windgeschwindigkeit und Uhrzeit der Messung23:45:00 Uhr0.00 km/h
Errechnete Windhäufigkeit in Relation zu den Messwerten des Tages0.00000 %
Niedrigste Windkühle (Windchill) und Zeitpunkt der Messung23:45:00 Uhr7.40 °C
Taupunkt (Maximum / Höchstwert) und Uhrzeit der Messung07:00:00 Uhr8.70 °C
Taupunkt (Minimum / Tiefstwert) und Uhrzeit der Messung23:45:007.00 °C
Anzahl der automatisch eingelesenen Messwerte 96

Detaillierte Wetter- und Klima- Messwerte für den 25.10.2016 in Holzhau im Erzgebirge (630m ü.NN)
ZeitTemperaturLuftdruckRel. LuftfeuchteWindWindrichtungWindchillTaupunktNiederschlag l/m²
23:45:007.40 °C1020.30 hPa97.00 %7.00 °C5.18
23:30:007.50 °C1020.20 hPa97.00 %7.10 °C5.18
23:15:007.50 °C1020.20 hPa97.00 %7.10 °C5.18
23:00:007.60 °C1020.20 hPa97.00 %7.20 °C5.18
22:45:007.60 °C1020.00 hPa97.00 %7.20 °C5.18
22:30:007.60 °C1019.80 hPa96.00 %7.00 °C5.18
22:15:007.70 °C1019.80 hPa96.00 %7.10 °C5.18
22:00:007.80 °C1019.90 hPa96.00 %7.20 °C4.66
21:45:007.80 °C1020.10 hPa97.00 %7.40 °C4.66
21:30:007.80 °C1020.00 hPa97.00 %7.40 °C4.14
21:15:007.80 °C1019.70 hPa97.00 %7.40 °C4.14
21:00:007.90 °C1019.60 hPa97.00 %7.50 °C4.14
20:45:007.90 °C1019.50 hPa97.00 %7.50 °C4.14
20:30:007.90 °C1019.40 hPa97.00 %7.50 °C4.14
20:15:007.90 °C1019.40 hPa97.00 %7.50 °C4.14
20:00:007.90 °C1019.20 hPa97.00 %7.50 °C4.14
19:45:007.90 °C1019.10 hPa97.00 %7.50 °C4.14
19:30:007.90 °C1018.80 hPa97.00 %7.50 °C4.14
19:15:007.90 °C1018.80 hPa97.00 %7.50 °C4.14
19:00:007.90 °C1018.60 hPa97.00 %7.50 °C4.14
18:45:007.90 °C1018.40 hPa97.00 %7.50 °C4.14
18:30:007.90 °C1018.40 hPa97.00 %7.50 °C4.14
18:15:007.90 °C1018.30 hPa97.00 %7.50 °C4.14
18:00:007.90 °C1018.00 hPa97.00 %7.50 °C4.14
17:45:008.00 °C1018.00 hPa97.00 %7.60 °C4.14
17:30:008.10 °C1017.80 hPa97.00 %7.70 °C4.14
17:15:008.10 °C1017.70 hPa97.00 %7.70 °C4.14
17:00:008.30 °C1017.60 hPa97.00 %7.90 °C4.14
16:45:008.60 °C1017.60 hPa97.00 %8.20 °C4.14
16:30:008.80 °C1017.70 hPa97.00 %8.40 °C4.14
16:15:008.80 °C1017.60 hPa97.00 %8.40 °C4.14
16:00:008.60 °C1017.50 hPa97.00 %8.20 °C4.14
15:45:008.30 °C1017.30 hPa97.00 %7.90 °C4.14
15:30:008.40 °C1017.20 hPa97.00 %8.00 °C4.14
15:15:008.20 °C1017.20 hPa97.00 %7.80 °C4.14
15:00:008.10 °C1017.30 hPa97.00 %7.70 °C4.14
14:45:008.00 °C1017.20 hPa97.00 %7.60 °C4.14
14:30:007.90 °C1016.80 hPa97.00 %7.50 °C4.14
14:15:007.90 °C1016.90 hPa97.00 %7.50 °C4.14
14:00:008.10 °C1016.70 hPa97.00 %7.70 °C4.14
13:45:008.10 °C1016.70 hPa97.00 %7.70 °C4.14
13:30:008.10 °C1016.70 hPa97.00 %7.70 °C4.14
13:15:008.10 °C1016.50 hPa97.00 %7.70 °C4.14
13:00:007.90 °C1016.40 hPa97.00 %7.50 °C4.14
12:45:007.90 °C1016.40 hPa97.00 %7.50 °C4.14
12:30:007.90 °C1016.20 hPa97.00 %7.50 °C4.14
12:15:007.90 °C1016.50 hPa97.00 %7.50 °C4.14
12:00:007.90 °C1016.30 hPa97.00 %7.50 °C4.14
11:45:007.90 °C1016.20 hPa97.00 %7.50 °C4.14
11:30:007.90 °C1015.90 hPa97.00 %7.50 °C4.14
11:15:007.60 °C1015.70 hPa96.00 %7.00 °C4.14
11:00:007.80 °C1015.70 hPa96.00 %7.20 °C4.14
10:45:007.80 °C1015.30 hPa96.00 %7.20 °C4.14
10:30:007.90 °C1015.20 hPa97.00 %7.50 °C4.14
10:15:007.90 °C1015.00 hPa97.00 %7.50 °C4.14
10:00:007.90 °C1014.80 hPa97.00 %7.50 °C4.14
09:45:007.90 °C1014.70 hPa97.00 %7.50 °C4.14
09:30:008.10 °C1014.70 hPa97.00 %7.70 °C4.14
09:15:008.20 °C1014.40 hPa97.00 %7.80 °C4.14
09:00:008.40 °C1014.20 hPa96.00 %7.80 °C4.14
08:45:008.70 °C1014.10 hPa96.00 %8.10 °C4.14
08:30:008.80 °C1013.80 hPa96.00 %8.20 °C4.14
08:15:008.90 °C1013.50 hPa96.00 %8.30 °C3.63
08:00:008.90 °C1013.20 hPa96.00 %8.30 °C3.11
07:45:008.90 °C1012.80 hPa96.00 %8.30 °C3.11
07:30:009.00 °C1012.60 hPa96.00 %8.40 °C3.11
07:15:009.10 °C1012.50 hPa96.00 %8.50 °C3.11
07:00:009.30 °C1012.60 hPa96.00 %8.70 °C2.59
06:45:009.30 °C1012.50 hPa96.00 %8.70 °C2.59
06:30:009.20 °C1012.20 hPa96.00 %8.60 °C2.07
06:15:009.20 °C1012.10 hPa96.00 %8.60 °C2.07
06:00:009.20 °C1012.20 hPa96.00 %8.60 °C2.07
05:45:009.20 °C1012.10 hPa96.00 %8.60 °C1.04
05:30:009.10 °C1012.00 hPa96.00 %8.50 °C1.04
05:15:009.00 °C1011.80 hPa96.00 %8.40 °C0.52
05:00:009.00 °C1011.70 hPa96.00 %8.40 °C 
04:45:008.90 °C1011.40 hPa96.00 %8.30 °C 
04:30:008.90 °C1011.10 hPa96.00 %8.30 °C 
04:15:008.90 °C1011.00 hPa96.00 %8.30 °C 
04:00:008.80 °C1011.30 hPa96.00 %8.20 °C 
03:45:008.60 °C1011.30 hPa96.00 %8.00 °C 
03:30:008.60 °C1011.20 hPa96.00 %8.00 °C 
03:15:008.70 °C1011.40 hPa96.00 %8.10 °C 
03:00:008.80 °C1011.50 hPa96.00 %8.20 °C 
02:45:008.90 °C1011.70 hPa96.00 %8.30 °C 
02:30:008.90 °C1011.90 hPa96.00 %8.30 °C 
02:15:008.90 °C1011.70 hPa96.00 %8.30 °C 
02:00:008.90 °C1011.80 hPa96.00 %8.30 °C 
01:45:008.90 °C1011.40 hPa96.00 %8.30 °C 
01:30:008.60 °C1011.60 hPa95.00 %7.80 °C 
01:15:008.40 °C1011.20 hPa95.00 %7.60 °C 
01:00:008.40 °C1010.80 hPa95.00 %7.60 °C 
00:45:008.30 °C1011.40 hPa95.00 %7.50 °C 
00:30:008.20 °C1011.20 hPa95.00 %7.40 °C 
00:15:008.20 °C1011.00 hPa95.00 %7.40 °C 
00:00:008.10 °C1011.10 hPa95.00 %7.30 °C 

Permanenter Link zu dieser Seite: Wetter im Erzgebirge am 25.10.2016
Performance-Info: Die Erstellung der Seite / Statistik(en) / Tabelle(n) erforderte 5 Datenbankserver-Abfrage(n) und dauerte 93 Millisekunden. (Dieser Messwert ist von der Gesamt-Auslastung des Servers abhängig.)
Erzgebirge - Wetter | Erzgebirge - Wetter (Mobilgeräte) | Komplette Klimadatenbank